Time;durP1;ratioP1;P1;durP2;ratioP2;P2;SDS_P1;SDS_P2;PMS_P1;PMS_P2;Temp;Humidity;BMP_temperature;BMP_pressure;BME280_temperature;BME280_humidity;BME280_pressure;Samples;Min_cycle;Max_cycle;Signal;HPM_P1;HPM_P2
2022/06/08 00:01:05;;;;;;;16.85;12.18;;;12.30;99.90;;;;;;5036781;28;20069;-66
2022/06/08 00:03:39;;;;;;;17.42;12.45;;;12.30;99.90;;;;;;5021293;28;20442;-65
2022/06/08 00:06:06;;;;;;;15.57;11.95;;;12.30;99.90;;;;;;5020913;28;20094;-67
2022/06/08 00:08:32;;;;;;;14.68;11.25;;;12.30;99.90;;;;;;5018744;28;20110;-66
2022/06/08 00:10:58;;;;;;;15.25;11.80;;;12.30;99.90;;;;;;5018890;28;20114;-66
2022/06/08 00:13:24;;;;;;;16.92;11.85;;;12.30;99.90;;;;;;5038597;28;20049;-67
2022/06/08 00:15:49;;;;;;;17.77;12.43;;;12.30;99.90;;;;;;5033845;28;20044;-67
2022/06/08 00:18:15;;;;;;;14.95;11.93;;;12.30;99.90;;;;;;5022094;28;20059;-67
2022/06/08 00:20:41;;;;;;;15.35;11.38;;;12.40;99.90;;;;;;5038381;28;20072;-66
2022/06/08 00:23:07;;;;;;;13.05;10.18;;;12.40;99.90;;;;;;5018471;28;20033;-67
2022/06/08 00:25:32;;;;;;;13.48;10.27;;;12.40;99.90;;;;;;5037486;28;20481;-67
2022/06/08 00:27:58;;;;;;;12.55;10.15;;;12.40;99.90;;;;;;5018353;28;20041;-66
2022/06/08 00:30:24;;;;;;;14.48;10.93;;;12.50;99.90;;;;;;5020754;28;20045;-67
2022/06/08 00:32:50;;;;;;;15.55;9.90;;;12.50;99.90;;;;;;5018372;28;20044;-66
2022/06/08 00:35:16;;;;;;;15.23;10.63;;;12.50;99.90;;;;;;5019058;28;20470;-67
2022/06/08 00:37:42;;;;;;;13.82;9.70;;;12.60;99.90;;;;;;5018325;28;20069;-66
2022/06/08 00:40:10;;;;;;;14.40;10.40;;;12.60;99.90;;;;;;5035625;28;20069;-67
2022/06/08 00:42:37;;;;;;;16.90;10.23;;;12.70;99.90;;;;;;5037751;28;20041;-67
2022/06/08 00:45:17;;;;;;;14.85;11.18;;;12.80;99.90;;;;;;5020393;28;20111;-66
2022/06/08 00:47:49;;;;;;;13.90;11.18;;;12.70;99.90;;;;;;5016409;28;20045;-67
2022/06/08 00:50:20;;;;;;;14.05;10.18;;;12.70;99.90;;;;;;5018627;28;20048;-67
2022/06/08 00:52:47;;;;;;;14.57;10.45;;;12.70;99.90;;;;;;5020499;28;20156;-66
2022/06/08 00:55:15;;;;;;;14.73;9.98;;;12.70;99.90;;;;;;5036030;28;20045;-67
2022/06/08 00:57:54;;;;;;;14.60;10.27;;;12.70;99.90;;;;;;5035801;28;20056;-66
2022/06/08 01:00:24;;;;;;;15.13;10.40;;;12.70;99.90;;;;;;5018530;28;20046;-67
2022/06/08 01:02:50;;;;;;;13.73;10.35;;;12.70;99.90;;;;;;5015416;28;20038;-66
2022/06/08 01:05:28;;;;;;;14.60;10.63;;;12.70;99.90;;;;;;5019313;28;20099;-68
2022/06/08 01:08:04;;;;;;;15.25;10.10;;;12.70;99.90;;;;;;5015724;28;20041;-67
2022/06/08 01:10:55;;;;;;;14.57;10.85;;;12.70;99.90;;;;;;5015673;28;20090;-67
2022/06/08 01:13:21;;;;;;;14.65;10.95;;;12.70;99.90;;;;;;5090409;28;20045;-66
2022/06/08 01:15:48;;;;;;;12.77;10.32;;;12.70;99.90;;;;;;5017812;28;20045;-67
2022/06/08 01:18:14;;;;;;;15.30;10.57;;;12.80;99.90;;;;;;5021233;28;20049;-68
2022/06/08 01:21:21;;;;;;;12.85;10.93;;;12.80;99.90;;;;;;5019304;28;20057;-67
2022/06/08 01:23:49;;;;;;;14.43;10.52;;;12.80;99.90;;;;;;5025383;28;20053;-66
2022/06/08 01:26:24;;;;;;;12.98;10.32;;;12.80;99.90;;;;;;5019805;28;20120;-67
2022/06/08 01:29:03;;;;;;;14.43;10.35;;;12.80;99.90;;;;;;5014262;28;20072;-66
2022/06/08 01:31:34;;;;;;;14.13;10.23;;;12.80;99.90;;;;;;5020009;28;20044;-66
2022/06/08 01:34:15;;;;;;;12.27;10.60;;;12.80;99.90;;;;;;5019934;27;20377;-67
2022/06/08 01:36:52;;;;;;;13.90;10.13;;;12.80;99.90;;;;;;5019015;28;20381;-67
2022/06/08 01:39:17;;;;;;;14.13;10.80;;;12.80;99.90;;;;;;5019244;28;20057;-66
2022/06/08 01:41:43;;;;;;;15.13;10.60;;;12.80;99.90;;;;;;5037591;28;20101;-67
2022/06/08 01:45:28;;;;;;;15.02;11.02;;;12.80;99.90;;;;;;5017835;28;20034;-66
2022/06/08 01:47:48;;;;;;;13.60;10.32;;;12.80;99.90;;;;;;5015018;28;20367;-67
2022/06/08 01:50:33;;;;;;;12.38;10.20;;;12.80;99.90;;;;;;5017566;28;20041;-66
2022/06/08 01:53:27;;;;;;;;;;;12.80;99.90;;;;;;5036625;28;20037;-66
2022/06/08 01:56:11;;;;;;;16.90;11.20;;;12.80;99.90;;;;;;4950794;28;19918;-66
2022/06/08 01:58:39;;;;;;;14.80;11.33;;;12.90;99.90;;;;;;5035040;28;20367;-66
2022/06/08 02:01:17;;;;;;;14.40;10.35;;;12.90;99.90;;;;;;5019849;28;20045;-67
2022/06/08 02:04:01;;;;;;;14.38;11.45;;;12.90;99.90;;;;;;5019580;28;20489;-67
2022/06/08 02:06:54;;;;;;;15.85;11.65;;;12.90;99.90;;;;;;5019306;28;20116;-67
2022/06/08 02:09:34;;;;;;;13.60;11.70;;;13.00;99.90;;;;;;5017736;28;20053;-66
2022/06/08 02:12:09;;;;;;;13.13;10.57;;;12.90;99.90;;;;;;5018099;28;20101;-67
2022/06/08 02:14:40;;;;;;;16.65;11.13;;;12.90;99.90;;;;;;5033642;28;20072;-67
2022/06/08 02:17:32;;;;;;;15.13;10.70;;;13.00;99.90;;;;;;5034425;28;20038;-67
2022/06/08 02:20:24;;;;;;;17.05;11.55;;;13.00;99.90;;;;;;5033701;28;20487;-66
2022/06/08 02:22:55;;;;;;;16.52;12.07;;;13.00;99.90;;;;;;5016886;28;20030;-66
2022/06/08 02:25:33;;;;;;;15.75;11.20;;;13.10;99.90;;;;;;5105998;28;20094;-67
2022/06/08 02:28:22;;;;;;;16.92;11.68;;;13.10;99.90;;;;;;5015499;28;20057;-66
2022/06/08 02:31:06;;;;;;;16.13;11.93;;;13.10;99.90;;;;;;5018641;28;20550;-66
2022/06/08 02:36:29;;;;;;;18.38;11.65;;;13.10;99.90;;;;;;5038751;28;20374;-65
2022/06/08 02:39:28;;;;;;;18.85;12.57;;;13.20;99.90;;;;;;5034879;28;20353;-66
2022/06/08 02:41:58;;;;;;;16.73;11.68;;;13.20;99.90;;;;;;5037560;28;20410;-66
2022/06/08 02:44:30;;;;;;;17.55;12.45;;;13.20;99.90;;;;;;5022533;28;20355;-67
2022/06/08 02:47:09;;;;;;;16.10;12.23;;;13.20;99.90;;;;;;5019784;28;20400;-67
2022/06/08 02:49:36;;;;;;;15.63;11.55;;;13.20;99.90;;;;;;5019205;28;20091;-66
2022/06/08 02:52:10;;;;;;;18.40;12.13;;;13.20;99.90;;;;;;5038001;28;20041;-66
2022/06/08 02:54:36;;;;;;;16.42;12.32;;;13.20;99.90;;;;;;5019106;28;20033;-66
2022/06/08 02:57:24;;;;;;;15.77;11.85;;;13.20;99.90;;;;;;5037578;28;20137;-67
2022/06/08 02:59:59;;;;;;;19.73;12.98;;;13.20;99.90;;;;;;5037554;28;20045;-66
2022/06/08 03:02:33;;;;;;;19.50;12.52;;;13.30;99.90;;;;;;5037760;28;20048;-67
2022/06/08 03:05:02;;;;;;;17.35;12.40;;;13.30;99.90;;;;;;5004613;28;20393;-66
2022/06/08 03:07:38;;;;;;;16.65;12.60;;;13.30;99.90;;;;;;5018989;28;20029;-66
2022/06/08 03:10:08;;;;;;;18.33;13.35;;;13.30;99.90;;;;;;5021513;28;20354;-66
2022/06/08 03:12:50;;;;;;;16.55;13.73;;;13.30;99.90;;;;;;5020017;28;20044;-66
2022/06/08 03:15:17;;;;;;;16.77;12.68;;;13.30;99.90;;;;;;5037787;28;20101;-65
2022/06/08 03:17:47;;;;;;;21.63;14.30;;;13.30;99.90;;;;;;5036520;28;20053;-66
2022/06/08 03:20:13;;;;;;;18.40;13.82;;;13.40;99.90;;;;;;5035649;28;20106;-66
2022/06/08 03:22:39;;;;;;;23.60;13.70;;;13.40;99.90;;;;;;5004185;28;20033;-66
2022/06/08 03:25:05;;;;;;;20.80;14.27;;;13.40;99.90;;;;;;5021738;28;20437;-67
2022/06/08 03:27:30;;;;;;;19.30;14.13;;;13.50;99.90;;;;;;5036428;28;20029;-66
2022/06/08 03:29:56;;;;;;;19.90;14.43;;;13.50;99.90;;;;;;5039024;28;20048;-66
2022/06/08 03:32:22;;;;;;;21.40;14.68;;;13.50;99.90;;;;;;5038842;28;20045;-66
2022/06/08 03:34:47;;;;;;;19.15;14.38;;;13.50;99.90;;;;;;5036615;28;20128;-67
2022/06/08 03:37:13;;;;;;;20.30;14.48;;;13.50;99.90;;;;;;5020463;28;20374;-66
2022/06/08 03:39:39;;;;;;;18.88;15.60;;;13.60;99.90;;;;;;5018112;28;20357;-66
2022/06/08 03:42:05;;;;;;;19.42;15.23;;;13.50;99.90;;;;;;5038968;28;20033;-66
2022/06/08 03:44:31;;;;;;;23.30;15.30;;;13.50;99.90;;;;;;5036945;28;20033;-67
2022/06/08 03:47:03;;;;;;;19.20;15.15;;;13.50;99.90;;;;;;5038311;28;20033;-66
2022/06/08 03:49:30;;;;;;;21.65;15.10;;;13.50;99.90;;;;;;5002191;28;20041;-66
2022/06/08 03:51:58;;;;;;;18.15;14.93;;;13.40;99.90;;;;;;5020425;28;20037;-67
2022/06/08 03:54:29;;;;;;;22.25;15.20;;;13.50;99.90;;;;;;5019155;28;20041;-66
2022/06/08 03:56:59;;;;;;;24.25;15.52;;;13.50;99.90;;;;;;5019530;28;20041;-66
2022/06/08 03:59:26;;;;;;;20.92;15.85;;;13.50;99.90;;;;;;5020867;28;20406;-66
2022/06/08 04:01:52;;;;;;;22.60;15.85;;;13.40;99.90;;;;;;5020330;28;20037;-67
2022/06/08 04:04:18;;;;;;;21.42;14.90;;;13.40;99.90;;;;;;5020497;28;20688;-66
2022/06/08 04:06:45;;;;;;;21.70;15.80;;;13.40;99.90;;;;;;5021585;28;20037;-66
2022/06/08 04:09:11;;;;;;;23.75;16.23;;;13.40;99.90;;;;;;5034451;28;20033;-66
2022/06/08 04:11:37;;;;;;;22.17;15.32;;;13.40;99.90;;;;;;5039070;28;20102;-66
2022/06/08 04:14:03;;;;;;;22.38;15.50;;;13.40;99.90;;;;;;5038839;28;20116;-66
2022/06/08 04:16:29;;;;;;;19.92;15.68;;;13.50;99.90;;;;;;5036664;28;20042;-66
2022/06/08 04:18:55;;;;;;;23.33;15.88;;;13.50;99.90;;;;;;5018634;28;20116;-67
2022/06/08 04:21:21;;;;;;;22.13;15.55;;;13.50;99.90;;;;;;5037267;28;20097;-65
2022/06/08 04:23:48;;;;;;;24.52;16.25;;;13.60;99.90;;;;;;5038846;28;20626;-66
2022/06/08 04:26:15;;;;;;;21.02;16.05;;;13.60;99.90;;;;;;5038007;28;20041;-66
2022/06/08 04:28:41;;;;;;;23.75;16.25;;;13.60;99.90;;;;;;5016951;28;20087;-66
2022/06/08 04:31:07;;;;;;;23.98;17.25;;;13.60;99.90;;;;;;5020818;28;20132;-66
2022/06/08 04:33:34;;;;;;;23.48;16.98;;;13.70;99.90;;;;;;5019273;28;20579;-66
2022/06/08 04:36:00;;;;;;;21.05;15.77;;;13.70;99.90;;;;;;5018762;28;20060;-66
2022/06/08 04:38:26;;;;;;;22.33;15.88;;;13.70;99.90;;;;;;5017353;28;20406;-66
2022/06/08 04:40:51;;;;;;;24.83;16.52;;;13.80;99.90;;;;;;5037761;28;20048;-66
2022/06/08 04:43:18;;;;;;;21.30;15.45;;;13.80;99.90;;;;;;5037054;28;20052;-66
2022/06/08 04:45:44;;;;;;;18.52;15.18;;;13.90;99.90;;;;;;5036453;28;20036;-66
2022/06/08 04:48:11;;;;;;;20.67;15.07;;;13.90;99.90;;;;;;5015765;28;20033;-65
2022/06/08 04:50:37;;;;;;;22.42;14.95;;;14.10;99.90;;;;;;5037388;28;20037;-66
2022/06/08 04:53:04;;;;;;;20.80;15.35;;;14.30;99.90;;;;;;5035779;28;20117;-66
2022/06/08 04:55:33;;;;;;;19.45;15.38;;;14.80;99.90;;;;;;5018879;28;20037;-66
2022/06/08 04:58:01;;;;;;;19.70;14.77;;;15.10;99.90;;;;;;5032538;28;20045;-66
2022/06/08 05:00:27;;;;;;;19.27;15.15;;;15.30;99.90;;;;;;5053926;28;20033;-67
2022/06/08 05:02:54;;;;;;;20.10;14.60;;;15.60;99.90;;;;;;5016091;28;20056;-66
2022/06/08 05:05:37;;;;;;;17.95;12.82;;;15.80;99.90;;;;;;5013659;28;20052;-66
2022/06/08 05:08:04;;;;;;;16.02;13.20;;;16.10;99.90;;;;;;5032434;28;20049;-67
2022/06/08 05:10:32;;;;;;;15.52;11.77;;;16.10;99.90;;;;;;5032063;28;20044;-67
2022/06/08 05:12:59;;;;;;;16.17;12.32;;;16.00;99.90;;;;;;5037545;28;20703;-66
2022/06/08 05:15:28;;;;;;;18.30;12.98;;;15.90;99.90;;;;;;5044394;28;20049;-66
2022/06/08 05:17:55;;;;;;;16.30;12.60;;;15.90;99.90;;;;;;5017606;28;20049;-66
2022/06/08 05:20:21;;;;;;;16.30;12.40;;;15.80;99.90;;;;;;5027735;28;20042;-67
2022/06/08 05:22:48;;;;;;;19.02;13.20;;;15.80;99.90;;;;;;5017812;28;20096;-67
2022/06/08 05:25:18;;;;;;;18.65;13.30;;;15.70;99.90;;;;;;5041945;27;20037;-66
2022/06/08 05:27:44;;;;;;;15.23;12.18;;;15.70;99.90;;;;;;5034705;28;20120;-66
2022/06/08 05:30:12;;;;;;;16.50;13.20;;;15.60;99.90;;;;;;5037192;28;20476;-66
2022/06/08 05:32:38;;;;;;;22.77;13.85;;;15.60;99.90;;;;;;5037534;28;20041;-66
2022/06/08 05:35:05;;;;;;;22.38;14.57;;;15.60;99.90;;;;;;5036678;28;20052;-66
2022/06/08 05:37:31;;;;;;;19.48;14.10;;;15.60;99.90;;;;;;5083441;28;20427;-67
2022/06/08 05:43:28;;;;;;;19.77;15.13;;;15.70;99.90;;;;;;5049097;28;20052;-66
2022/06/08 05:45:54;;;;;;;20.10;15.75;;;15.70;99.90;;;;;;5039953;28;20049;-66
2022/06/08 05:48:20;;;;;;;20.45;15.75;;;15.90;99.90;;;;;;5035001;28;20034;-66
2022/06/08 05:50:46;;;;;;;20.33;16.73;;;16.00;99.90;;;;;;5018139;28;20087;-66
2022/06/08 05:53:14;;;;;;;18.35;15.77;;;16.40;99.90;;;;;;5049112;28;20037;-65
2022/06/08 05:55:41;;;;;;;20.58;15.85;;;16.70;99.90;;;;;;5033814;28;20055;-66
2022/06/08 05:58:06;;;;;;;20.00;15.57;;;16.80;99.90;;;;;;5044445;28;20214;-65
2022/06/08 06:36:10;;;;;;;15.97;11.60;;;20.80;99.90;;;;;;5094127;27;20190;-66
2022/06/08 06:38:36;;;;;;;14.52;11.75;;;19.90;99.90;;;;;;4994338;28;20436;-66
2022/06/08 06:41:02;;;;;;;16.27;11.82;;;19.50;99.90;;;;;;5017219;28;20034;-67
2022/06/08 06:43:28;;;;;;;13.48;11.27;;;19.20;99.90;;;;;;5016955;28;20368;-66
2022/06/08 06:45:53;;;;;;;13.93;11.40;;;19.00;99.90;;;;;;4985372;28;20331;-66
2022/06/08 06:48:19;;;;;;;12.48;10.55;;;18.80;99.90;;;;;;5018866;28;20558;-67
2022/06/08 06:50:45;;;;;;;13.43;10.40;;;18.70;99.90;;;;;;5016612;28;20046;-66
2022/06/08 06:53:13;;;;;;;17.65;11.07;;;18.60;99.90;;;;;;5016869;28;20038;-66
2022/06/08 06:55:39;;;;;;;15.52;12.15;;;18.70;99.90;;;;;;5017786;28;20029;-66
2022/06/08 06:58:06;;;;;;;13.25;10.68;;;18.80;99.90;;;;;;5010940;28;20046;-66
2022/06/08 07:00:33;;;;;;;12.60;10.30;;;18.80;99.90;;;;;;5000027;28;20049;-66
2022/06/08 07:02:59;;;;;;;11.50;10.02;;;18.90;99.90;;;;;;4999946;28;20041;-66
2022/06/08 07:05:30;;;;;;;12.63;10.05;;;19.10;99.90;;;;;;5019062;28;20354;-66
2022/06/08 07:07:56;;;;;;;12.70;9.68;;;19.20;99.90;;;;;;5003547;28;20050;-66
2022/06/08 07:32:55;;;;;;;10.27;7.38;;;20.90;99.90;;;;;;5016981;28;20128;-67
2022/06/08 07:35:21;;;;;;;13.40;8.02;;;21.10;99.90;;;;;;5004551;28;20041;-66
2022/06/08 07:37:46;;;;;;;10.00;7.28;;;21.00;99.90;;;;;;5034864;28;20367;-66
2022/06/08 07:40:12;;;;;;;9.40;6.82;;;21.00;99.90;;;;;;5041310;28;20128;-66
2022/06/08 07:42:39;;;;;;;10.05;6.40;;;20.90;99.90;;;;;;5038754;28;20065;-66
2022/06/08 07:45:06;;;;;;;8.77;6.05;;;21.00;99.90;;;;;;5036797;28;20034;-66
2022/06/08 07:47:32;;;;;;;8.95;6.72;;;21.10;99.90;;;;;;5036788;28;20033;-67
2022/06/08 08:27:59;;;;;;;7.35;5.28;;;22.00;99.90;;;;;;5034969;28;20045;-66
2022/06/08 08:33:48;;;;;;;7.43;4.65;;;22.50;99.90;;;;;;5024404;28;20109;-67
2022/06/08 08:36:50;;;;;;;7.45;4.80;;;22.70;99.90;;;;;;5041754;27;20056;-67
2022/06/08 08:39:17;;;;;;;7.57;6.45;;;22.90;99.90;;;;;;5035207;28;20052;-67
2022/06/08 08:45:36;;;;;;;5.93;4.20;;;23.00;99.90;;;;;;5015433;28;20045;-66
2022/06/08 08:51:50;;;;;;;7.30;4.22;;;22.90;99.90;;;;;;5118883;22;20541;-67
2022/06/08 08:54:40;;;;;;;6.45;4.50;;;22.90;99.90;;;;;;5090663;28;20118;-67
2022/06/08 08:57:12;;;;;;;8.05;4.22;;;23.00;99.90;;;;;;5091734;28;20081;-67
2022/06/08 08:59:42;;;;;;;6.47;3.58;;;22.90;99.90;;;;;;5083096;28;20039;-67
2022/06/08 09:02:13;;;;;;;4.43;3.03;;;23.00;99.90;;;;;;5074477;28;20058;-67
2022/06/08 09:04:47;;;;;;;7.10;3.88;;;22.90;99.90;;;;;;5083048;28;20036;-67
2022/06/08 09:07:23;;;;;;;8.07;4.10;;;22.80;99.90;;;;;;5084954;28;20364;-67
2022/06/08 09:09:48;;;;;;;5.85;3.50;;;22.80;99.90;;;;;;5087795;28;20035;-68
2022/06/08 09:12:20;;;;;;;6.43;3.80;;;22.80;99.90;;;;;;5082631;28;20032;-68
2022/06/08 09:15:00;;;;;;;6.05;4.00;;;22.90;99.90;;;;;;5089390;28;20040;-68
2022/06/08 09:17:37;;;;;;;5.93;3.70;;;23.00;99.90;;;;;;5087273;28;20044;-67
2022/06/08 09:20:32;;;;;;;5.70;3.92;;;22.80;99.90;;;;;;5077722;28;20458;-68
2022/06/08 09:23:18;;;;;;;7.68;4.28;;;22.60;99.90;;;;;;5089683;28;20036;-67
2022/06/08 09:25:44;;;;;;;5.90;3.90;;;22.60;99.90;;;;;;5091135;28;20047;-69
2022/06/08 09:28:31;;;;;;;5.43;3.40;;;22.60;99.90;;;;;;5084604;28;20032;-68
2022/06/08 09:30:57;;;;;;;5.07;3.35;;;22.60;99.90;;;;;;5088108;28;20081;-68
2022/06/08 09:33:26;;;;;;;5.10;3.25;;;22.60;99.90;;;;;;5087878;28;20051;-69
2022/06/08 09:36:03;;;;;;;8.00;3.60;;;22.70;99.90;;;;;;5075633;28;20031;-69
2022/06/08 09:38:34;;;;;;;6.15;3.80;;;22.60;99.90;;;;;;5076023;28;20043;-65
2022/06/08 09:41:24;;;;;;;6.22;3.42;;;22.60;99.90;;;;;;5084418;28;20059;-65
2022/06/08 09:43:58;;;;;;;6.05;3.50;;;22.40;99.90;;;;;;5074369;28;20067;-68
2022/06/08 09:52:41;;;;;;;8.60;4.00;;;22.30;99.90;;;;;;5086767;28;20049;-66
2022/06/08 09:55:34;;;;;;;8.15;4.22;;;22.30;99.90;;;;;;5086796;28;20075;-66
2022/06/08 09:58:18;;;;;;;5.60;3.70;;;22.30;99.90;;;;;;5064457;28;20061;-67
2022/06/08 10:00:52;;;;;;;5.75;3.70;;;22.20;99.90;;;;;;5054165;28;20119;-67
2022/06/08 10:03:55;;;;;;;7.05;4.93;;;22.20;99.90;;;;;;5079408;28;20050;-67
2022/06/08 10:06:48;;;;;;;6.95;4.72;;;22.20;99.90;;;;;;5078166;28;20113;-67
2022/06/08 10:09:19;;;;;;;8.70;4.63;;;22.10;99.90;;;;;;5083758;28;20495;-67
2022/06/08 10:12:08;;;;;;;6.72;4.57;;;22.10;99.90;;;;;;5079973;28;20085;-67
2022/06/08 10:14:52;;;;;;;6.95;4.68;;;22.10;99.90;;;;;;5044633;28;20446;-67
2022/06/08 10:17:22;;;;;;;8.40;5.10;;;22.10;99.90;;;;;;5075262;28;20040;-67
2022/06/08 10:20:00;;;;;;;7.93;4.72;;;22.00;99.90;;;;;;5086761;28;20035;-67
2022/06/08 10:22:35;;;;;;;7.68;4.55;;;22.10;99.90;;;;;;5079293;28;20412;-67
2022/06/08 10:25:07;;;;;;;6.80;4.50;;;22.40;99.90;;;;;;5079893;28;20113;-67
2022/06/08 10:27:51;;;;;;;6.10;4.32;;;22.40;99.90;;;;;;5072104;28;20041;-66
2022/06/08 10:30:24;;;;;;;7.90;4.47;;;22.30;99.90;;;;;;5075659;28;20821;-68
2022/06/08 10:33:00;;;;;;;8.18;4.90;;;22.40;99.90;;;;;;5096075;28;20051;-67
2022/06/08 10:35:30;;;;;;;7.90;4.68;;;22.30;99.90;;;;;;5073451;28;20359;-66
2022/06/08 10:37:57;;;;;;;8.68;4.57;;;22.30;99.90;;;;;;5070244;28;20039;-67
2022/06/08 10:40:28;;;;;;;8.77;4.45;;;22.20;99.90;;;;;;5086905;28;20039;-68
2022/06/08 10:42:54;;;;;;;7.38;4.55;;;22.30;99.90;;;;;;5087080;28;20028;-67
2022/06/08 10:45:22;;;;;;;6.72;4.65;;;22.30;99.90;;;;;;5078004;28;20031;-66
2022/06/08 10:48:11;;;;;;;10.45;4.35;;;22.30;99.90;;;;;;5072620;28;20053;-67
2022/06/08 10:50:39;;;;;;;10.30;5.63;;;22.40;99.90;;;;;;5046511;28;20032;-67
2022/06/08 10:56:26;;;;;;;5.70;4.35;;;22.50;99.90;;;;;;5080243;28;20043;-67
2022/06/08 10:59:14;;;;;;;8.35;5.20;;;22.60;99.90;;;;;;5083666;28;20032;-67
2022/06/08 11:02:16;;;;;;;8.00;4.40;;;22.70;99.90;;;;;;5090495;28;20040;-67
2022/06/08 11:05:06;;;;;;;8.07;4.75;;;22.70;99.90;;;;;;5103429;28;20038;-68
2022/06/08 11:08:06;;;;;;;8.07;4.30;;;22.70;99.90;;;;;;5097771;28;20031;-67
2022/06/08 11:10:44;;;;;;;9.57;3.05;;;22.40;99.90;;;;;;5078972;28;20404;-67
2022/06/08 11:13:25;;;;;;;10.82;2.70;;;21.60;99.90;;;;;;5080725;28;20069;-66
2022/06/08 11:16:09;;;;;;;10.30;2.78;;;20.70;99.90;;;;;;5078443;28;20413;-65
2022/06/08 11:18:34;;;;;;;;;;;19.70;99.90;;;;;;5080007;28;20095;-65
2022/06/08 11:21:06;;;;;;;8.02;2.22;;;19.00;99.90;;;;;;5083422;28;20301;-67
2022/06/08 11:23:41;;;;;;;4.50;2.00;;;18.60;99.90;;;;;;5084542;28;20118;-67
2022/06/08 11:26:19;;;;;;;9.40;2.58;;;18.30;99.90;;;;;;5091364;28;20097;-64
2022/06/08 11:29:04;;;;;;;5.90;2.25;;;18.20;99.90;;;;;;5095093;28;20047;-65
2022/06/08 11:31:42;;;;;;;7.18;2.47;;;18.10;99.90;;;;;;5093023;28;20039;-68
2022/06/08 11:34:20;;;;;;;7.90;2.78;;;18.10;99.90;;;;;;5080423;28;20430;-64
2022/06/08 11:37:11;;;;;;;9.55;2.92;;;18.20;99.90;;;;;;5090925;28;20035;-64
2022/06/08 11:39:45;;;;;;;6.50;3.15;;;18.20;99.90;;;;;;5079368;28;20035;-65
2022/06/08 11:42:14;;;;;;;7.95;3.28;;;18.30;99.90;;;;;;5084216;28;20453;-65
2022/06/08 11:44:53;;;;;;;7.65;3.58;;;18.30;99.90;;;;;;5087820;28;20032;-68
2022/06/08 11:47:21;;;;;;;9.77;4.00;;;18.30;99.90;;;;;;5091505;28;20086;-66
2022/06/08 11:50:00;;;;;;;9.75;4.30;;;18.40;99.90;;;;;;5088152;28;20359;-65
2022/06/08 11:52:38;;;;;;;7.95;4.38;;;18.40;99.90;;;;;;5090926;28;20058;-65
2022/06/08 11:55:33;;;;;;;9.15;4.68;;;18.40;99.90;;;;;;5103200;28;20043;-65
2022/06/08 11:58:05;;;;;;;8.27;4.57;;;18.40;99.90;;;;;;5097786;28;20056;-65
2022/06/08 12:00:34;;;;;;;8.27;4.65;;;18.50;99.90;;;;;;5100430;28;20127;-67
2022/06/08 12:03:25;;;;;;;8.73;4.80;;;18.60;99.90;;;;;;5091070;28;20043;-65
2022/06/08 12:06:08;;;;;;;6.63;4.20;;;18.60;99.90;;;;;;5100001;28;20375;-66
2022/06/08 12:08:40;;;;;;;12.18;5.40;;;18.70;99.90;;;;;;5098730;28;20050;-66
2022/06/08 12:11:09;;;;;;;8.45;4.82;;;18.80;99.90;;;;;;5098418;28;20047;-66
2022/06/08 12:13:35;;;;;;;9.90;5.75;;;18.90;99.90;;;;;;5103347;28;20338;-65
2022/06/08 12:16:22;;;;;;;9.35;5.63;;;19.20;99.90;;;;;;5092632;28;20040;-68
2022/06/08 12:19:00;;;;;;;10.38;5.13;;;19.30;99.90;;;;;;5080635;28;20127;-64
2022/06/08 12:21:28;;;;;;;8.57;4.82;;;19.40;99.90;;;;;;5091690;28;20043;-68
2022/06/08 12:24:12;;;;;;;7.93;4.57;;;19.60;99.90;;;;;;5093269;28;20131;-65
2022/06/08 12:26:49;;;;;;;7.78;4.28;;;19.70;99.90;;;;;;5100196;28;20527;-65
2022/06/08 12:29:27;;;;;;;7.75;3.70;;;19.70;99.90;;;;;;5089884;28;20090;-65
2022/06/08 12:31:59;;;;;;;8.65;3.30;;;19.60;99.90;;;;;;5099891;28;20078;-67
2022/06/08 12:34:35;;;;;;;8.27;3.40;;;19.70;99.90;;;;;;5101121;28;20086;-66
2022/06/08 12:37:26;;;;;;;5.45;3.15;;;19.70;99.90;;;;;;5091024;28;20410;-66
2022/06/08 12:39:53;;;;;;;9.80;3.83;;;19.70;99.90;;;;;;5097781;28;20114;-65
2022/06/08 12:42:29;;;;;;;7.28;2.95;;;19.60;99.90;;;;;;5100333;28;20086;-65
2022/06/08 12:44:57;;;;;;;7.95;3.47;;;19.60;99.90;;;;;;5100788;28;20036;-66
2022/06/08 12:47:29;;;;;;;6.20;3.33;;;19.50;99.90;;;;;;5102282;28;20043;-66
2022/06/08 12:50:01;;;;;;;6.43;3.38;;;19.50;99.90;;;;;;5097822;28;20052;-65
2022/06/08 12:52:32;;;;;;;7.03;3.80;;;19.70;99.90;;;;;;5090239;28;20127;-66
2022/06/08 12:54:59;;;;;;;8.95;4.05;;;19.80;99.90;;;;;;5084942;28;20399;-66
2022/06/08 12:57:31;;;;;;;7.95;3.78;;;19.80;99.90;;;;;;5079147;28;20035;-67
2022/06/08 13:00:00;;;;;;;8.05;3.45;;;19.90;99.90;;;;;;5073067;28;20458;-66
2022/06/08 13:02:40;;;;;;;8.10;3.78;;;20.00;99.90;;;;;;5080693;28;20122;-66
2022/06/08 13:05:18;;;;;;;11.23;4.50;;;20.10;99.90;;;;;;5081081;28;20342;-66
2022/06/08 13:07:45;;;;;;;10.13;3.80;;;20.20;99.90;;;;;;5077548;28;20045;-66
2022/06/08 13:10:11;;;;;;;8.70;3.75;;;20.30;99.90;;;;;;5077134;28;20071;-65
2022/06/08 13:12:43;;;;;;;8.13;3.72;;;20.30;99.90;;;;;;5063403;28;20040;-67
2022/06/08 13:15:41;;;;;;;8.63;3.63;;;20.40;99.90;;;;;;5074773;28;20382;-66
2022/06/08 13:18:10;;;;;;;7.18;3.50;;;20.40;99.90;;;;;;5077534;28;20394;-66
2022/06/08 13:20:37;;;;;;;8.85;3.40;;;20.50;99.90;;;;;;5078086;28;20037;-66
2022/06/08 13:23:03;;;;;;;13.23;2.97;;;20.40;99.90;;;;;;5079475;28;20114;-66
2022/06/08 13:25:33;;;;;;;9.60;3.50;;;20.60;99.90;;;;;;5086454;28;20118;-66
2022/06/08 13:27:59;;;;;;;5.38;2.25;;;20.70;99.90;;;;;;5083191;28;20042;-67
2022/06/08 13:30:28;;;;;;;5.60;1.67;;;20.60;99.90;;;;;;5077438;28;20032;-66
2022/06/08 13:32:56;;;;;;;4.85;1.85;;;20.60;99.90;;;;;;5068949;28;20064;-67
2022/06/08 13:35:23;;;;;;;6.38;2.25;;;20.60;99.90;;;;;;5080296;28;20040;-67
2022/06/08 13:37:51;;;;;;;4.53;1.75;;;20.60;99.90;;;;;;5082557;28;20043;-66
2022/06/08 13:40:23;;;;;;;6.15;1.98;;;20.60;99.90;;;;;;5075995;28;20090;-67
2022/06/08 13:42:50;;;;;;;5.20;1.90;;;20.50;99.90;;;;;;5080598;28;20035;-66
2022/06/08 13:45:19;;;;;;;7.53;1.98;;;20.50;99.90;;;;;;5078924;28;20046;-68
2022/06/08 13:47:50;;;;;;;4.65;1.90;;;20.40;99.90;;;;;;5075872;28;20351;-67
2022/06/08 13:50:24;;;;;;;7.03;2.10;;;20.40;99.90;;;;;;5078651;28;20367;-67
2022/06/08 13:52:51;;;;;;;5.78;1.98;;;20.40;99.90;;;;;;5087906;28;20342;-67
2022/06/08 13:55:23;;;;;;;4.05;1.70;;;20.30;99.90;;;;;;5051611;28;20147;-66
2022/06/08 13:57:51;;;;;;;6.10;1.92;;;20.30;99.90;;;;;;5081803;28;20242;-66
2022/06/08 14:00:18;;;;;;;7.15;1.70;;;20.20;99.90;;;;;;5086235;28;20080;-68
2022/06/08 14:02:59;;;;;;;5.47;2.05;;;20.10;99.90;;;;;;5048509;28;20047;-67
2022/06/08 14:13:48;;;;;;;5.82;1.75;;;20.10;99.90;;;;;;5085715;28;20105;-67
2022/06/08 14:16:15;;;;;;;5.53;1.65;;;20.10;99.90;;;;;;5085987;28;20040;-68
2022/06/08 14:18:50;;;;;;;6.43;1.70;;;20.00;99.90;;;;;;5081846;28;20064;-67
2022/06/08 14:21:17;;;;;;;7.07;1.85;;;20.00;99.90;;;;;;5081734;28;20045;-68
2022/06/08 14:23:47;;;;;;;4.00;1.60;;;19.80;99.90;;;;;;5085835;28;20457;-67
2022/06/08 14:26:17;;;;;;;3.50;1.38;;;19.80;99.90;;;;;;5087582;28;20032;-67
2022/06/08 14:28:46;;;;;;;3.88;1.40;;;19.80;99.90;;;;;;5084552;28;20040;-67
2022/06/08 14:31:16;;;;;;;3.47;1.33;;;19.60;99.90;;;;;;5086980;28;20039;-68
2022/06/08 14:33:42;;;;;;;3.30;1.20;;;19.60;99.90;;;;;;5089540;28;20036;-67
2022/06/08 14:36:12;;;;;;;2.28;1.20;;;19.50;99.90;;;;;;5089882;28;20039;-67
2022/06/08 14:38:38;;;;;;;4.10;1.67;;;19.30;99.90;;;;;;5085723;28;20036;-67
2022/06/08 14:41:04;;;;;;;4.20;1.60;;;19.30;99.90;;;;;;5089729;28;20055;-67
2022/06/08 14:43:30;;;;;;;5.30;2.00;;;19.20;99.90;;;;;;5086602;28;20384;-67
2022/06/08 14:45:58;;;;;;;3.60;1.55;;;19.20;99.90;;;;;;5091094;28;20368;-67
2022/06/08 14:48:41;;;;;;;4.63;1.65;;;19.20;99.90;;;;;;5088172;28;20472;-67
2022/06/08 14:51:12;;;;;;;4.93;2.20;;;19.00;99.90;;;;;;5089597;28;20043;-66
2022/06/08 14:53:37;;;;;;;4.30;1.67;;;19.00;99.90;;;;;;5008372;28;20385;-66
2022/06/08 14:56:26;;;;;;;4.10;2.00;;;18.90;99.90;;;;;;5006411;28;20033;-66
2022/06/08 14:58:54;;;;;;;4.30;1.80;;;18.80;99.90;;;;;;5019887;28;20155;-67
2022/06/08 15:01:29;;;;;;;4.80;1.90;;;18.70;99.90;;;;;;5006111;28;20049;-67
2022/06/08 15:03:55;;;;;;;3.17;1.60;;;18.60;99.90;;;;;;5002410;28;20049;-67
2022/06/08 15:06:21;;;;;;;4.93;2.50;;;18.60;99.90;;;;;;5006224;28;20042;-68
2022/06/08 15:08:48;;;;;;;5.10;2.72;;;18.50;99.90;;;;;;5016846;28;20580;-66
2022/06/08 15:14:17;;;;;;;4.72;2.00;;;18.40;99.90;;;;;;5008120;28;20042;-66
2022/06/08 15:16:43;;;;;;;4.40;2.20;;;18.30;99.90;;;;;;5007766;28;20580;-67
2022/06/08 15:19:24;;;;;;;4.90;2.00;;;18.30;99.90;;;;;;5006920;28;20279;-66